sensor_id;sensor_type;location;lat;lon;timestamp;pressure;altitude;pressure_sealevel;temperature;humidity
78855;BME280;68206;59.956;30.234;2023-04-25T00:01:48;100570.94;;;12.83;61.71
78855;BME280;68206;59.956;30.234;2023-04-25T00:04:16;100563.88;;;12.82;61.31
78855;BME280;68206;59.956;30.234;2023-04-25T00:06:44;100565.63;;;12.83;61.52
78855;BME280;68206;59.956;30.234;2023-04-25T00:09:12;100566.63;;;12.80;61.21
78855;BME280;68206;59.956;30.234;2023-04-25T00:11:40;100567.59;;;12.78;61.72
78855;BME280;68206;59.956;30.234;2023-04-25T00:14:08;100572.06;;;12.77;61.35
78855;BME280;68206;59.956;30.234;2023-04-25T00:16:38;100566.78;;;12.76;61.07
78855;BME280;68206;59.956;30.234;2023-04-25T00:19:08;100572.13;;;12.76;61.46
78855;BME280;68206;59.956;30.234;2023-04-25T00:21:36;100562.38;;;12.75;61.21
78855;BME280;68206;59.956;30.234;2023-04-25T00:24:07;100567.72;;;12.75;61.00
78855;BME280;68206;59.956;30.234;2023-04-25T00:26:35;100567.00;;;12.71;60.77
78855;BME280;68206;59.956;30.234;2023-04-25T00:29:03;100569.69;;;12.70;61.06
78855;BME280;68206;59.956;30.234;2023-04-25T00:31:31;100560.94;;;12.68;60.63
78855;BME280;68206;59.956;30.234;2023-04-25T00:34:01;100568.91;;;12.68;60.71
78855;BME280;68206;59.956;30.234;2023-04-25T00:36:29;100562.78;;;12.66;60.61
78855;BME280;68206;59.956;30.234;2023-04-25T00:38:58;100564.63;;;12.64;60.62
78855;BME280;68206;59.956;30.234;2023-04-25T00:41:26;100562.16;;;12.59;61.53
78855;BME280;68206;59.956;30.234;2023-04-25T00:43:55;100560.44;;;12.58;60.88
78855;BME280;68206;59.956;30.234;2023-04-25T00:46:23;100563.13;;;12.57;60.37
78855;BME280;68206;59.956;30.234;2023-04-25T00:48:52;100564.16;;;12.54;60.58
78855;BME280;68206;59.956;30.234;2023-04-25T00:51:21;100563.38;;;12.50;61.03
78855;BME280;68206;59.956;30.234;2023-04-25T00:53:50;100568.84;;;12.47;60.95
78855;BME280;68206;59.956;30.234;2023-04-25T00:56:19;100561.78;;;12.46;60.52
78855;BME280;68206;59.956;30.234;2023-04-25T00:58:48;100562.84;;;12.42;60.71
78855;BME280;68206;59.956;30.234;2023-04-25T01:01:17;100562.91;;;12.41;61.07
78855;BME280;68206;59.956;30.234;2023-04-25T01:03:46;100564.69;;;12.40;59.99
78855;BME280;68206;59.956;30.234;2023-04-25T01:06:17;100562.94;;;12.39;60.78
78855;BME280;68206;59.956;30.234;2023-04-25T01:08:47;100568.31;;;12.38;60.11
78855;BME280;68206;59.956;30.234;2023-04-25T01:11:15;100564.88;;;12.36;59.84
78855;BME280;68206;59.956;30.234;2023-04-25T01:13:43;100564.13;;;12.32;60.32
78855;BME280;68206;59.956;30.234;2023-04-25T01:16:11;100568.69;;;12.29;59.69
78855;BME280;68206;59.956;30.234;2023-04-25T01:18:40;100558.13;;;12.27;58.96
78855;BME280;68206;59.956;30.234;2023-04-25T01:21:12;100562.56;;;12.27;58.90
78855;BME280;68206;59.956;30.234;2023-04-25T01:23:41;100556.38;;;12.26;58.62
78855;BME280;68206;59.956;30.234;2023-04-25T01:26:10;100565.28;;;12.25;58.50
78855;BME280;68206;59.956;30.234;2023-04-25T01:28:40;100560.78;;;12.27;58.74
78855;BME280;68206;59.956;30.234;2023-04-25T01:31:11;100566.09;;;12.27;57.88
78855;BME280;68206;59.956;30.234;2023-04-25T01:33:40;100559.97;;;12.25;57.74
78855;BME280;68206;59.956;30.234;2023-04-25T01:36:08;100557.31;;;12.25;58.55
78855;BME280;68206;59.956;30.234;2023-04-25T01:38:38;100555.59;;;12.24;58.30
78855;BME280;68206;59.956;30.234;2023-04-25T01:41:07;100554.63;;;12.25;57.66
78855;BME280;68206;59.956;30.234;2023-04-25T01:43:35;100557.31;;;12.25;57.95
78855;BME280;68206;59.956;30.234;2023-04-25T01:46:03;100558.25;;;12.24;57.09
78855;BME280;68206;59.956;30.234;2023-04-25T01:48:32;100558.25;;;12.24;56.98
78855;BME280;68206;59.956;30.234;2023-04-25T01:51:00;100551.13;;;12.25;57.27
78855;BME280;68206;59.956;30.234;2023-04-25T01:53:29;100558.31;;;12.23;56.52
78855;BME280;68206;59.956;30.234;2023-04-25T01:56:00;100551.28;;;12.20;55.91
78855;BME280;68206;59.956;30.234;2023-04-25T01:58:32;100552.22;;;12.19;56.69
78855;BME280;68206;59.956;30.234;2023-04-25T02:01:27;100557.66;;;12.16;55.67
78855;BME280;68206;59.956;30.234;2023-04-25T02:04:11;100552.34;;;12.16;55.44
78855;BME280;68206;59.956;30.234;2023-04-25T02:06:40;100555.88;;;12.17;54.97
78855;BME280;68206;59.956;30.234;2023-04-25T02:09:08;100547.09;;;12.15;55.08
78855;BME280;68206;59.956;30.234;2023-04-25T02:11:43;100549.75;;;12.15;54.51
78855;BME280;68206;59.956;30.234;2023-04-25T02:14:34;100550.63;;;12.15;53.65
78855;BME280;68206;59.956;30.234;2023-04-25T02:17:18;100547.91;;;12.17;53.82
78855;BME280;68206;59.956;30.234;2023-04-25T02:19:48;100553.22;;;12.17;53.44
78855;BME280;68206;59.956;30.234;2023-04-25T02:22:16;100550.47;;;12.18;53.64
78855;BME280;68206;59.956;30.234;2023-04-25T02:24:46;100544.31;;;12.18;52.73
78855;BME280;68206;59.956;30.234;2023-04-25T02:27:16;100557.53;;;12.19;53.05
78855;BME280;68206;59.956;30.234;2023-04-25T02:29:44;100552.16;;;12.21;52.79
78855;BME280;68206;59.956;30.234;2023-04-25T02:32:12;100556.50;;;12.23;52.26
78855;BME280;68206;59.956;30.234;2023-04-25T02:34:40;100550.28;;;12.24;51.75
78855;BME280;68206;59.956;30.234;2023-04-25T02:37:08;100550.28;;;12.24;51.84
78855;BME280;68206;59.956;30.234;2023-04-25T02:39:36;100555.59;;;12.24;51.62
78855;BME280;68206;59.956;30.234;2023-04-25T02:42:04;100559.97;;;12.25;51.70
78855;BME280;68206;59.956;30.234;2023-04-25T02:44:34;100550.09;;;12.29;50.84
78855;BME280;68206;59.956;30.234;2023-04-25T02:47:04;100559.72;;;12.31;51.23
78855;BME280;68206;59.956;30.234;2023-04-25T02:49:32;100551.75;;;12.31;49.65
78855;BME280;68206;59.956;30.234;2023-04-25T02:52:01;100548.97;;;12.34;49.32
78855;BME280;68206;59.956;30.234;2023-04-25T02:54:29;100543.41;;;12.40;49.67
78855;BME280;68206;59.956;30.234;2023-04-25T02:56:58;100540.31;;;12.51;49.16
78855;BME280;68206;59.956;30.234;2023-04-25T02:59:31;100545.81;;;12.68;48.25
78855;BME280;68206;59.956;30.234;2023-04-25T03:02:01;100549.78;;;12.80;47.97
78855;BME280;68206;59.956;30.234;2023-04-25T03:04:29;100544.88;;;12.91;47.69
78855;BME280;68206;59.956;30.234;2023-04-25T03:06:57;100550.50;;;13.05;46.50
78855;BME280;68206;59.956;30.234;2023-04-25T03:09:26;100546.66;;;13.12;46.21
78855;BME280;68206;59.956;30.234;2023-04-25T03:11:54;100552.06;;;13.51;44.81
78855;BME280;68206;59.956;30.234;2023-04-25T03:14:22;100550.75;;;13.80;44.14
78855;BME280;68206;59.956;30.234;2023-04-25T03:16:50;100549.06;;;13.98;43.78
78855;BME280;68206;59.956;30.234;2023-04-25T03:19:20;100562.81;;;14.64;41.85
78855;BME280;68206;59.956;30.234;2023-04-25T03:21:48;100555.28;;;15.25;40.65
78855;BME280;68206;59.956;30.234;2023-04-25T03:24:17;100560.13;;;15.68;40.01
78855;BME280;68206;59.956;30.234;2023-04-25T03:26:45;100555.47;;;15.89;38.77
78855;BME280;68206;59.956;30.234;2023-04-25T03:29:13;100556.94;;;15.95;38.56
78855;BME280;68206;59.956;30.234;2023-04-25T03:31:42;100561.88;;;16.18;38.69
78855;BME280;68206;59.956;30.234;2023-04-25T03:34:10;100565.25;;;16.37;37.85
78855;BME280;68206;59.956;30.234;2023-04-25T03:36:40;100560.28;;;16.63;37.62
78855;BME280;68206;59.956;30.234;2023-04-25T03:39:09;100562.25;;;16.75;37.75
78855;BME280;68206;59.956;30.234;2023-04-25T03:41:39;100564.84;;;16.92;37.61
78855;BME280;68206;59.956;30.234;2023-04-25T03:44:12;100569.19;;;16.79;37.38
78855;BME280;68206;59.956;30.234;2023-04-25T03:46:40;100574.78;;;16.59;37.24
78855;BME280;68206;59.956;30.234;2023-04-25T03:49:08;100562.94;;;16.31;37.99
78855;BME280;68206;59.956;30.234;2023-04-25T03:52:00;100573.03;;;16.26;38.76
78855;BME280;68206;59.956;30.234;2023-04-25T03:54:34;100574.16;;;16.38;39.38
78855;BME280;68206;59.956;30.234;2023-04-25T03:57:06;100574.34;;;16.82;38.52
78855;BME280;68206;59.956;30.234;2023-04-25T03:59:37;100576.09;;;17.28;38.11
78855;BME280;68206;59.956;30.234;2023-04-25T04:02:08;100573.53;;;17.41;38.23
78855;BME280;68206;59.956;30.234;2023-04-25T04:04:36;100574.00;;;17.33;37.53
78855;BME280;68206;59.956;30.234;2023-04-25T04:07:07;100577.63;;;17.32;37.11
78855;BME280;68206;59.956;30.234;2023-04-25T04:09:37;100568.66;;;17.18;36.70
78855;BME280;68206;59.956;30.234;2023-04-25T04:12:09;100572.63;;;16.97;36.87
78855;BME280;68206;59.956;30.234;2023-04-25T04:14:39;100576.38;;;16.78;36.54
78855;BME280;68206;59.956;30.234;2023-04-25T04:17:08;100578.41;;;16.58;36.39
78855;BME280;68206;59.956;30.234;2023-04-25T04:19:36;100573.81;;;16.44;36.93
78855;BME280;68206;59.956;30.234;2023-04-25T04:22:18;100578.56;;;16.23;37.01
78855;BME280;68206;59.956;30.234;2023-04-25T04:24:47;100573.72;;;16.14;37.08
78855;BME280;68206;59.956;30.234;2023-04-25T04:27:29;100578.59;;;16.06;37.10
78855;BME280;68206;59.956;30.234;2023-04-25T04:30:13;100565.66;;;15.98;37.15
78855;BME280;68206;59.956;30.234;2023-04-25T04:32:57;100575.41;;;15.99;37.53
78855;BME280;68206;59.956;30.234;2023-04-25T04:35:25;100577.25;;;15.99;37.77
78855;BME280;68206;59.956;30.234;2023-04-25T04:37:55;100578.06;;;15.99;37.23
78855;BME280;68206;59.956;30.234;2023-04-25T04:40:27;100571.72;;;16.02;37.02
78855;BME280;68206;59.956;30.234;2023-04-25T04:43:06;100574.13;;;16.71;36.43
78855;BME280;68206;59.956;30.234;2023-04-25T04:45:38;100572.19;;;17.78;34.46
78855;BME280;68206;59.956;30.234;2023-04-25T04:48:30;100571.72;;;17.71;33.98
78855;BME280;68206;59.956;30.234;2023-04-25T04:51:14;100580.84;;;17.53;33.99
78855;BME280;68206;59.956;30.234;2023-04-25T04:54:02;100579.19;;;17.81;34.37
78855;BME280;68206;59.956;30.234;2023-04-25T04:56:49;100562.59;;;18.31;33.46
78855;BME280;68206;59.956;30.234;2023-04-25T04:59:31;100571.53;;;18.17;32.94
78855;BME280;68206;59.956;30.234;2023-04-25T05:02:25;100570.44;;;17.63;33.31
78855;BME280;68206;59.956;30.234;2023-04-25T05:05:14;100581.75;;;17.38;33.85
78855;BME280;68206;59.956;30.234;2023-04-25T05:08:05;100575.44;;;17.69;33.86
78855;BME280;68206;59.956;30.234;2023-04-25T05:10:51;100567.56;;;18.37;31.95
78855;BME280;68206;59.956;30.234;2023-04-25T05:13:53;100573.16;;;18.05;32.51
78855;BME280;68206;59.956;30.234;2023-04-25T05:16:44;100577.84;;;17.73;33.00
78855;BME280;68206;59.956;30.234;2023-04-25T05:19:32;100572.16;;;17.64;33.29
78855;BME280;68206;59.956;30.234;2023-04-25T05:22:29;100577.09;;;17.42;33.64
78855;BME280;68206;59.956;30.234;2023-04-25T05:25:10;100578.63;;;17.16;33.58
78855;BME280;68206;59.956;30.234;2023-04-25T05:28:00;100578.13;;;17.09;33.82
78855;BME280;68206;59.956;30.234;2023-04-25T05:30:47;100565.22;;;16.86;34.33
78855;BME280;68206;59.956;30.234;2023-04-25T05:33:18;100574.25;;;16.99;34.60
78855;BME280;68206;59.956;30.234;2023-04-25T05:35:46;100566.84;;;17.18;34.40
78855;BME280;68206;59.956;30.234;2023-04-25T05:38:14;100579.78;;;17.42;33.78
78855;BME280;68206;59.956;30.234;2023-04-25T05:41:01;100568.63;;;17.63;33.19
78855;BME280;68206;59.956;30.234;2023-04-25T05:43:41;100569.25;;;18.11;33.22
78855;BME280;68206;59.956;30.234;2023-04-25T05:46:24;100571.97;;;18.38;32.15
78855;BME280;68206;59.956;30.234;2023-04-25T05:49:25;100571.41;;;18.47;32.00
78855;BME280;68206;59.956;30.234;2023-04-25T05:51:53;100571.19;;;18.50;32.04
78855;BME280;68206;59.956;30.234;2023-04-25T05:54:47;100562.88;;;18.81;31.72
78855;BME280;68206;59.956;30.234;2023-04-25T05:57:19;100564.28;;;19.14;31.93
78855;BME280;68206;59.956;30.234;2023-04-25T05:59:49;100568.72;;;19.27;31.15
78855;BME280;68206;59.956;30.234;2023-04-25T06:02:19;100565.72;;;19.32;30.70
78855;BME280;68206;59.956;30.234;2023-04-25T06:04:49;100567.91;;;19.40;30.72
78855;BME280;68206;59.956;30.234;2023-04-25T06:07:18;100567.97;;;19.65;30.68
78855;BME280;68206;59.956;30.234;2023-04-25T06:09:47;100563.22;;;20.06;30.02
78855;BME280;68206;59.956;30.234;2023-04-25T06:12:15;100565.34;;;20.39;29.63
78855;BME280;68206;59.956;30.234;2023-04-25T06:14:44;100564.56;;;20.50;28.66
78855;BME280;68206;59.956;30.234;2023-04-25T06:17:15;100565.94;;;20.56;28.62
78855;BME280;68206;59.956;30.234;2023-04-25T06:19:43;100566.31;;;20.75;28.39
78855;BME280;68206;59.956;30.234;2023-04-25T06:22:14;100570.56;;;20.90;28.31
78855;BME280;68206;59.956;30.234;2023-04-25T06:24:42;100565.53;;;21.09;27.73
78855;BME280;68206;59.956;30.234;2023-04-25T06:27:11;100561.75;;;21.36;27.61
78855;BME280;68206;59.956;30.234;2023-04-25T06:29:42;100563.44;;;21.94;27.12
78855;BME280;68206;59.956;30.234;2023-04-25T06:32:10;100555.63;;;23.74;26.16
78855;BME280;68206;59.956;30.234;2023-04-25T06:34:39;100563.31;;;25.29;25.12
78855;BME280;68206;59.956;30.234;2023-04-25T06:37:08;100559.09;;;26.57;22.43
78855;BME280;68206;59.956;30.234;2023-04-25T06:39:36;100571.34;;;27.33;21.14
78855;BME280;68206;59.956;30.234;2023-04-25T06:42:07;100563.69;;;28.58;19.87
78855;BME280;68206;59.956;30.234;2023-04-25T06:44:57;100555.19;;;29.76;18.97
78855;BME280;68206;59.956;30.234;2023-04-25T06:47:28;100552.81;;;30.52;17.67
78855;BME280;68206;59.956;30.234;2023-04-25T06:50:00;100549.41;;;31.12;16.79
78855;BME280;68206;59.956;30.234;2023-04-25T06:52:29;100552.22;;;32.01;17.42
78855;BME280;68206;59.956;30.234;2023-04-25T06:55:00;100552.13;;;31.95;15.33
78855;BME280;68206;59.956;30.234;2023-04-25T06:57:49;100546.59;;;32.32;16.38
78855;BME280;68206;59.956;30.234;2023-04-25T07:00:46;100537.97;;;32.86;15.02
78855;BME280;68206;59.956;30.234;2023-04-25T07:03:15;100540.41;;;33.32;14.42
78855;BME280;68206;59.956;30.234;2023-04-25T07:05:45;100538.09;;;33.78;13.89
78855;BME280;68206;59.956;30.234;2023-04-25T07:08:13;100541.22;;;34.37;13.76
78855;BME280;68206;59.956;30.234;2023-04-25T07:10:42;100541.47;;;34.42;13.46
78855;BME280;68206;59.956;30.234;2023-04-25T07:13:10;100540.44;;;34.50;12.38
78855;BME280;68206;59.956;30.234;2023-04-25T07:15:39;100540.66;;;34.96;12.86
78855;BME280;68206;59.956;30.234;2023-04-25T07:18:07;100542.25;;;35.44;11.84
78855;BME280;68206;59.956;30.234;2023-04-25T07:20:35;100540.53;;;35.43;11.65
78855;BME280;68206;59.956;30.234;2023-04-25T07:23:05;100545.84;;;35.45;10.93
78855;BME280;68206;59.956;30.234;2023-04-25T07:25:33;100538.63;;;35.44;11.34
78855;BME280;68206;59.956;30.234;2023-04-25T07:28:02;100533.97;;;35.57;11.34
78855;BME280;68206;59.956;30.234;2023-04-25T07:30:31;100538.34;;;35.12;11.64
78855;BME280;68206;59.956;30.234;2023-04-25T07:33:02;100541.81;;;35.21;11.46
78855;BME280;68206;59.956;30.234;2023-04-25T07:35:31;100537.28;;;35.07;10.99
78855;BME280;68206;59.956;30.234;2023-04-25T07:37:59;100543.78;;;34.79;11.22
78855;BME280;68206;59.956;30.234;2023-04-25T07:40:30;100530.66;;;34.82;11.15
78855;BME280;68206;59.956;30.234;2023-04-25T07:43:04;100535.88;;;34.70;10.71
78855;BME280;68206;59.956;30.234;2023-04-25T07:45:42;100535.72;;;34.37;10.58
78855;BME280;68206;59.956;30.234;2023-04-25T07:48:11;100530.66;;;34.34;10.53
78855;BME280;68206;59.956;30.234;2023-04-25T07:50:40;100534.72;;;34.10;11.33
78855;BME280;68206;59.956;30.234;2023-04-25T07:53:08;100536.44;;;34.18;10.68
78855;BME280;68206;59.956;30.234;2023-04-25T07:55:45;100539.00;;;34.54;10.47
78855;BME280;68206;59.956;30.234;2023-04-25T07:58:16;100533.03;;;34.50;10.63
78855;BME280;68206;59.956;30.234;2023-04-25T08:00:52;100530.75;;;34.54;10.71
78855;BME280;68206;59.956;30.234;2023-04-25T08:03:36;100519.69;;;34.47;9.84
78855;BME280;68206;59.956;30.234;2023-04-25T08:06:10;100540.72;;;34.61;10.59
78855;BME280;68206;59.956;30.234;2023-04-25T08:08:54;100541.09;;;34.11;9.89
78855;BME280;68206;59.956;30.234;2023-04-25T08:11:29;100525.50;;;33.69;10.45
78855;BME280;68206;59.956;30.234;2023-04-25T08:13:58;100529.53;;;33.23;10.92
78855;BME280;68206;59.956;30.234;2023-04-25T08:16:26;100533.81;;;33.11;10.45
78855;BME280;68206;59.956;30.234;2023-04-25T08:18:54;100531.22;;;33.03;9.90
78855;BME280;68206;59.956;30.234;2023-04-25T08:21:22;100540.78;;;32.71;9.59
78855;BME280;68206;59.956;30.234;2023-04-25T08:23:53;100534.41;;;31.45;10.11
78855;BME280;68206;59.956;30.234;2023-04-25T08:26:25;100532.97;;;31.12;10.61
78855;BME280;68206;59.956;30.234;2023-04-25T08:28:56;100530.78;;;30.76;11.20
78855;BME280;68206;59.956;30.234;2023-04-25T08:31:24;100537.03;;;30.15;11.41
78855;BME280;68206;59.956;30.234;2023-04-25T08:33:57;100537.44;;;29.23;12.03
78855;BME280;68206;59.956;30.234;2023-04-25T08:36:38;100540.97;;;28.49;12.66
78855;BME280;68206;59.956;30.234;2023-04-25T08:39:38;100540.06;;;28.06;12.70
78855;BME280;68206;59.956;30.234;2023-04-25T08:42:27;100531.88;;;27.55;13.36
78855;BME280;68206;59.956;30.234;2023-04-25T08:44:57;100542.38;;;26.79;13.97
78855;BME280;68206;59.956;30.234;2023-04-25T08:47:33;100538.66;;;26.53;14.35
78855;BME280;68206;59.956;30.234;2023-04-25T08:50:03;100544.22;;;26.33;14.50
78855;BME280;68206;59.956;30.234;2023-04-25T08:52:36;100530.16;;;26.01;14.38
78855;BME280;68206;59.956;30.234;2023-04-25T08:55:09;100531.94;;;25.83;14.78
78855;BME280;68206;59.956;30.234;2023-04-25T08:57:39;100539.25;;;25.53;15.12
78855;BME280;68206;59.956;30.234;2023-04-25T09:00:12;100530.34;;;24.74;15.59
78855;BME280;68206;59.956;30.234;2023-04-25T09:02:43;100535.03;;;24.53;16.02
78855;BME280;68206;59.956;30.234;2023-04-25T09:05:12;100524.06;;;24.55;16.18
78855;BME280;68206;59.956;30.234;2023-04-25T09:07:41;100526.59;;;24.46;16.51
78855;BME280;68206;59.956;30.234;2023-04-25T09:10:10;100519.78;;;24.52;16.80
78855;BME280;68206;59.956;30.234;2023-04-25T09:12:38;100525.06;;;24.63;16.40
78855;BME280;68206;59.956;30.234;2023-04-25T09:15:11;100534.34;;;24.80;16.79
78855;BME280;68206;59.956;30.234;2023-04-25T09:17:55;100520.81;;;24.70;16.88
78855;BME280;68206;59.956;30.234;2023-04-25T09:20:26;100526.81;;;24.83;16.36
78855;BME280;68206;59.956;30.234;2023-04-25T09:23:04;100517.78;;;24.64;16.37
78855;BME280;68206;59.956;30.234;2023-04-25T09:25:37;100528.03;;;24.50;15.99
78855;BME280;68206;59.956;30.234;2023-04-25T09:28:09;100520.69;;;24.22;16.16
78855;BME280;68206;59.956;30.234;2023-04-25T09:30:38;100513.06;;;24.16;16.40
78855;BME280;68206;59.956;30.234;2023-04-25T09:33:13;100521.13;;;24.27;16.79
78855;BME280;68206;59.956;30.234;2023-04-25T09:35:46;100515.63;;;24.18;16.58
78855;BME280;68206;59.956;30.234;2023-04-25T09:38:40;100522.13;;;24.05;16.57
78855;BME280;68206;59.956;30.234;2023-04-25T09:41:22;100513.94;;;24.17;17.10
78855;BME280;68206;59.956;30.234;2023-04-25T09:43:56;100517.13;;;24.31;17.29
78855;BME280;68206;59.956;30.234;2023-04-25T09:46:34;100518.91;;;24.42;17.22
78855;BME280;68206;59.956;30.234;2023-04-25T09:49:08;100523.72;;;24.38;16.60
78855;BME280;68206;59.956;30.234;2023-04-25T09:51:53;100517.81;;;24.24;16.37
78855;BME280;68206;59.956;30.234;2023-04-25T09:54:23;100527.09;;;24.21;16.51
78855;BME280;68206;59.956;30.234;2023-04-25T09:57:05;100524.63;;;24.18;16.36
78855;BME280;68206;59.956;30.234;2023-04-25T09:59:38;100524.16;;;24.13;16.83
78855;BME280;68206;59.956;30.234;2023-04-25T10:02:09;100530.00;;;24.08;16.52
78855;BME280;68206;59.956;30.234;2023-04-25T10:04:39;100525.63;;;23.87;16.82
78855;BME280;68206;59.956;30.234;2023-04-25T10:07:19;100535.44;;;23.78;16.48
78855;BME280;68206;59.956;30.234;2023-04-25T10:09:48;100531.09;;;23.66;16.71
78855;BME280;68206;59.956;30.234;2023-04-25T10:12:17;100529.91;;;23.59;16.62
78855;BME280;68206;59.956;30.234;2023-04-25T10:14:46;100530.78;;;23.27;16.98
78855;BME280;68206;59.956;30.234;2023-04-25T10:17:17;100533.09;;;23.32;17.09
78855;BME280;68206;59.956;30.234;2023-04-25T10:19:47;100527.59;;;23.54;17.23
78855;BME280;68206;59.956;30.234;2023-04-25T10:22:18;100537.28;;;23.57;16.84
78855;BME280;68206;59.956;30.234;2023-04-25T10:24:49;100530.31;;;23.54;16.89
78855;BME280;68206;59.956;30.234;2023-04-25T10:27:18;100532.47;;;23.60;16.77
78855;BME280;68206;59.956;30.234;2023-04-25T10:30:00;100533.25;;;23.72;16.90
78855;BME280;68206;59.956;30.234;2023-04-25T10:32:32;100539.34;;;23.64;17.32
78855;BME280;68206;59.956;30.234;2023-04-25T10:35:10;100540.81;;;23.37;18.06
78855;BME280;68206;59.956;30.234;2023-04-25T10:37:56;100545.41;;;23.25;18.22
78855;BME280;68206;59.956;30.234;2023-04-25T10:40:24;100543.16;;;23.30;18.29
78855;BME280;68206;59.956;30.234;2023-04-25T10:42:52;100538.94;;;23.48;18.44
78855;BME280;68206;59.956;30.234;2023-04-25T10:45:21;100532.59;;;23.59;18.49
78855;BME280;68206;59.956;30.234;2023-04-25T10:47:50;100546.06;;;23.70;17.99
78855;BME280;68206;59.956;30.234;2023-04-25T10:50:19;100545.00;;;23.82;17.94
78855;BME280;68206;59.956;30.234;2023-04-25T10:52:47;100536.81;;;23.73;17.76
78855;BME280;68206;59.956;30.234;2023-04-25T10:55:15;100543.69;;;23.77;17.83
78855;BME280;68206;59.956;30.234;2023-04-25T10:57:45;100542.69;;;23.78;17.29
78855;BME280;68206;59.956;30.234;2023-04-25T11:00:17;100545.13;;;23.81;17.47
78855;BME280;68206;59.956;30.234;2023-04-25T11:02:48;100546.13;;;23.80;17.05
78855;BME280;68206;59.956;30.234;2023-04-25T11:05:30;100545.59;;;23.65;16.86
78855;BME280;68206;59.956;30.234;2023-04-25T11:08:11;100541.19;;;23.64;17.03
78855;BME280;68206;59.956;30.234;2023-04-25T11:10:41;100542.28;;;23.61;16.87
78855;BME280;68206;59.956;30.234;2023-04-25T11:13:09;100542.28;;;23.61;16.88
78855;BME280;68206;59.956;30.234;2023-04-25T11:15:37;100539.41;;;23.53;16.93
78855;BME280;68206;59.956;30.234;2023-04-25T11:18:06;100551.47;;;23.49;16.94
78855;BME280;68206;59.956;30.234;2023-04-25T11:20:36;100557.66;;;23.40;16.92
78855;BME280;68206;59.956;30.234;2023-04-25T11:23:04;100543.69;;;23.24;17.13
78855;BME280;68206;59.956;30.234;2023-04-25T11:25:32;100548.13;;;23.25;16.94
78855;BME280;68206;59.956;30.234;2023-04-25T11:28:04;100548.41;;;23.22;17.05
78855;BME280;68206;59.956;30.234;2023-04-25T11:30:32;100551.50;;;23.17;17.29
78855;BME280;68206;59.956;30.234;2023-04-25T11:33:00;100538.22;;;23.14;17.14
78855;BME280;68206;59.956;30.234;2023-04-25T11:35:30;100539.31;;;23.23;17.23
78855;BME280;68206;59.956;30.234;2023-04-25T11:38:02;100542.72;;;23.25;17.19
78855;BME280;68206;59.956;30.234;2023-04-25T11:40:30;100548.41;;;23.22;17.21
78855;BME280;68206;59.956;30.234;2023-04-25T11:43:00;100535.84;;;23.21;17.09
78855;BME280;68206;59.956;30.234;2023-04-25T11:45:28;100534.13;;;23.20;17.29
78855;BME280;68206;59.956;30.234;2023-04-25T11:47:57;100531.69;;;23.38;17.40
78855;BME280;68206;59.956;30.234;2023-04-25T11:50:28;100535.03;;;23.62;17.35
78855;BME280;68206;59.956;30.234;2023-04-25T11:52:56;100534.38;;;23.49;17.47
78855;BME280;68206;59.956;30.234;2023-04-25T11:55:26;100539.69;;;23.39;17.13
78855;BME280;68206;59.956;30.234;2023-04-25T11:58:00;100540.75;;;23.27;17.14
78855;BME280;68206;59.956;30.234;2023-04-25T12:00:29;100546.50;;;23.33;17.37
78855;BME280;68206;59.956;30.234;2023-04-25T12:02:57;100539.44;;;23.42;17.06
78855;BME280;68206;59.956;30.234;2023-04-25T12:05:27;100532.84;;;23.56;17.19
78855;BME280;68206;59.956;30.234;2023-04-25T12:08:12;100536.41;;;23.56;16.82
78855;BME280;68206;59.956;30.234;2023-04-25T12:10:45;100532.69;;;23.48;16.66
78855;BME280;68206;59.956;30.234;2023-04-25T12:13:20;100523.34;;;23.41;17.04
78855;BME280;68206;59.956;30.234;2023-04-25T12:15:49;100527.34;;;23.46;16.81
78855;BME280;68206;59.956;30.234;2023-04-25T12:18:19;100523.47;;;23.39;16.83
78855;BME280;68206;59.956;30.234;2023-04-25T12:20:48;100510.69;;;23.30;17.04
78855;BME280;68206;59.956;30.234;2023-04-25T12:23:16;100528.84;;;23.18;16.83
78855;BME280;68206;59.956;30.234;2023-04-25T12:25:45;100530.28;;;23.02;17.10
78855;BME280;68206;59.956;30.234;2023-04-25T12:28:16;100522.94;;;22.92;17.39
78855;BME280;68206;59.956;30.234;2023-04-25T12:30:53;100531.34;;;22.78;17.63
78855;BME280;68206;59.956;30.234;2023-04-25T12:33:22;100515.50;;;22.74;17.53
78855;BME280;68206;59.956;30.234;2023-04-25T12:35:50;100524.09;;;22.68;17.66
78855;BME280;68206;59.956;30.234;2023-04-25T12:38:25;100520.78;;;22.75;17.49
78855;BME280;68206;59.956;30.234;2023-04-25T12:40:56;100519.91;;;22.86;17.63
78855;BME280;68206;59.956;30.234;2023-04-25T12:43:25;100517.41;;;22.94;17.48
78855;BME280;68206;59.956;30.234;2023-04-25T12:45:54;100515.03;;;23.01;17.65
78855;BME280;68206;59.956;30.234;2023-04-25T12:48:23;100519.94;;;23.07;17.38
78855;BME280;68206;59.956;30.234;2023-04-25T12:50:51;100505.28;;;23.09;17.47
78855;BME280;68206;59.956;30.234;2023-04-25T12:53:21;100508.59;;;23.13;17.38
78855;BME280;68206;59.956;30.234;2023-04-25T12:55:50;100510.69;;;23.09;17.54
78855;BME280;68206;59.956;30.234;2023-04-25T12:58:19;100512.56;;;23.09;17.43
78855;BME280;68206;59.956;30.234;2023-04-25T13:00:47;100507.66;;;23.03;17.67
78855;BME280;68206;59.956;30.234;2023-04-25T13:03:16;100508.66;;;23.02;17.68
78855;BME280;68206;59.956;30.234;2023-04-25T13:05:44;100501.91;;;22.96;17.80
78855;BME280;68206;59.956;30.234;2023-04-25T13:08:13;100510.88;;;22.97;18.22